sensor_id;sensor_type;location;lat;lon;timestamp;P1;durP1;ratioP1;P2;durP2;ratioP2
73672;SDS011;61972;19.480;-99.240;2024-02-28T00:00:25;7.07;;;4.80;;
73672;SDS011;61972;19.480;-99.240;2024-02-28T00:02:51;7.25;;;4.90;;
73672;SDS011;61972;19.480;-99.240;2024-02-28T00:05:17;7.57;;;5.10;;
73672;SDS011;61972;19.480;-99.240;2024-02-28T00:07:44;8.43;;;4.83;;
73672;SDS011;61972;19.480;-99.240;2024-02-28T00:10:11;7.07;;;5.25;;
73672;SDS011;61972;19.480;-99.240;2024-02-28T00:12:38;7.38;;;5.10;;
73672;SDS011;61972;19.480;-99.240;2024-02-28T00:15:04;6.93;;;4.68;;
73672;SDS011;61972;19.480;-99.240;2024-02-28T00:17:38;8.65;;;4.80;;
73672;SDS011;61972;19.480;-99.240;2024-02-28T00:20:06;7.27;;;4.60;;
73672;SDS011;61972;19.480;-99.240;2024-02-28T00:22:33;8.20;;;4.82;;
73672;SDS011;61972;19.480;-99.240;2024-02-28T00:24:59;6.65;;;4.40;;
73672;SDS011;61972;19.480;-99.240;2024-02-28T00:27:26;8.50;;;4.72;;
73672;SDS011;61972;19.480;-99.240;2024-02-28T00:29:52;8.57;;;5.07;;
73672;SDS011;61972;19.480;-99.240;2024-02-28T00:32:18;7.87;;;4.87;;
73672;SDS011;61972;19.480;-99.240;2024-02-28T00:34:45;11.35;;;4.93;;
73672;SDS011;61972;19.480;-99.240;2024-02-28T00:37:13;7.75;;;4.75;;
73672;SDS011;61972;19.480;-99.240;2024-02-28T00:39:39;6.90;;;4.60;;
73672;SDS011;61972;19.480;-99.240;2024-02-28T00:42:06;6.47;;;4.80;;
73672;SDS011;61972;19.480;-99.240;2024-02-28T00:44:32;6.67;;;4.60;;
73672;SDS011;61972;19.480;-99.240;2024-02-28T00:46:59;8.20;;;4.50;;
73672;SDS011;61972;19.480;-99.240;2024-02-28T00:49:25;7.95;;;5.07;;
73672;SDS011;61972;19.480;-99.240;2024-02-28T00:51:51;8.07;;;4.35;;
73672;SDS011;61972;19.480;-99.240;2024-02-28T00:54:17;7.18;;;4.55;;
73672;SDS011;61972;19.480;-99.240;2024-02-28T00:56:43;9.10;;;5.33;;
73672;SDS011;61972;19.480;-99.240;2024-02-28T00:59:10;8.27;;;5.00;;
73672;SDS011;61972;19.480;-99.240;2024-02-28T01:01:38;9.02;;;5.35;;
73672;SDS011;61972;19.480;-99.240;2024-02-28T01:04:04;8.00;;;5.30;;
73672;SDS011;61972;19.480;-99.240;2024-02-28T01:06:30;7.82;;;4.57;;
73672;SDS011;61972;19.480;-99.240;2024-02-28T01:08:59;9.00;;;4.73;;
73672;SDS011;61972;19.480;-99.240;2024-02-28T01:11:25;8.23;;;4.95;;
73672;SDS011;61972;19.480;-99.240;2024-02-28T01:13:51;8.55;;;5.45;;
73672;SDS011;61972;19.480;-99.240;2024-02-28T01:16:17;9.25;;;4.80;;
73672;SDS011;61972;19.480;-99.240;2024-02-28T01:18:43;9.50;;;4.90;;
73672;SDS011;61972;19.480;-99.240;2024-02-28T01:21:09;8.33;;;5.20;;
73672;SDS011;61972;19.480;-99.240;2024-02-28T01:23:36;8.40;;;5.30;;
73672;SDS011;61972;19.480;-99.240;2024-02-28T01:26:02;8.55;;;5.50;;
73672;SDS011;61972;19.480;-99.240;2024-02-28T01:28:34;8.70;;;5.43;;
73672;SDS011;61972;19.480;-99.240;2024-02-28T01:31:00;11.05;;;5.53;;
73672;SDS011;61972;19.480;-99.240;2024-02-28T01:33:26;8.73;;;4.97;;
73672;SDS011;61972;19.480;-99.240;2024-02-28T01:35:52;8.57;;;4.70;;
73672;SDS011;61972;19.480;-99.240;2024-02-28T01:38:18;11.73;;;4.60;;
73672;SDS011;61972;19.480;-99.240;2024-02-28T01:40:45;8.32;;;5.20;;
73672;SDS011;61972;19.480;-99.240;2024-02-28T01:43:12;9.32;;;5.43;;
73672;SDS011;61972;19.480;-99.240;2024-02-28T01:45:38;7.87;;;5.00;;
73672;SDS011;61972;19.480;-99.240;2024-02-28T01:48:09;8.02;;;5.05;;
73672;SDS011;61972;19.480;-99.240;2024-02-28T01:50:36;7.93;;;4.80;;
73672;SDS011;61972;19.480;-99.240;2024-02-28T01:53:03;10.30;;;5.03;;
73672;SDS011;61972;19.480;-99.240;2024-02-28T01:55:31;7.88;;;5.05;;
73672;SDS011;61972;19.480;-99.240;2024-02-28T01:57:57;7.40;;;4.90;;
73672;SDS011;61972;19.480;-99.240;2024-02-28T02:00:24;7.72;;;5.05;;
73672;SDS011;61972;19.480;-99.240;2024-02-28T02:02:52;8.65;;;5.13;;
73672;SDS011;61972;19.480;-99.240;2024-02-28T02:05:18;9.15;;;5.18;;
73672;SDS011;61972;19.480;-99.240;2024-02-28T02:07:47;7.38;;;4.88;;
73672;SDS011;61972;19.480;-99.240;2024-02-28T02:10:14;8.50;;;4.70;;
73672;SDS011;61972;19.480;-99.240;2024-02-28T02:12:40;7.28;;;4.80;;
73672;SDS011;61972;19.480;-99.240;2024-02-28T02:15:06;9.38;;;5.07;;
73672;SDS011;61972;19.480;-99.240;2024-02-28T02:17:33;9.13;;;4.80;;
73672;SDS011;61972;19.480;-99.240;2024-02-28T02:19:59;7.93;;;4.85;;
73672;SDS011;61972;19.480;-99.240;2024-02-28T02:22:31;6.87;;;4.57;;
73672;SDS011;61972;19.480;-99.240;2024-02-28T02:25:03;8.00;;;5.00;;
73672;SDS011;61972;19.480;-99.240;2024-02-28T02:27:30;8.95;;;4.55;;
73672;SDS011;61972;19.480;-99.240;2024-02-28T02:29:56;8.50;;;4.68;;
73672;SDS011;61972;19.480;-99.240;2024-02-28T02:32:22;7.03;;;4.50;;
73672;SDS011;61972;19.480;-99.240;2024-02-28T02:34:49;8.63;;;4.47;;
73672;SDS011;61972;19.480;-99.240;2024-02-28T02:37:15;7.25;;;4.55;;
73672;SDS011;61972;19.480;-99.240;2024-02-28T02:39:41;7.45;;;4.97;;
73672;SDS011;61972;19.480;-99.240;2024-02-28T02:42:07;7.72;;;4.32;;
73672;SDS011;61972;19.480;-99.240;2024-02-28T02:44:33;7.38;;;4.47;;
73672;SDS011;61972;19.480;-99.240;2024-02-28T02:47:03;7.60;;;4.40;;
73672;SDS011;61972;19.480;-99.240;2024-02-28T02:49:32;8.18;;;4.55;;
73672;SDS011;61972;19.480;-99.240;2024-02-28T02:51:58;6.93;;;4.90;;
73672;SDS011;61972;19.480;-99.240;2024-02-28T02:54:24;8.52;;;4.90;;
73672;SDS011;61972;19.480;-99.240;2024-02-28T02:56:50;7.97;;;4.45;;
73672;SDS011;61972;19.480;-99.240;2024-02-28T02:59:16;7.97;;;4.43;;
73672;SDS011;61972;19.480;-99.240;2024-02-28T03:01:45;6.35;;;4.55;;
73672;SDS011;61972;19.480;-99.240;2024-02-28T03:04:11;8.15;;;4.72;;
73672;SDS011;61972;19.480;-99.240;2024-02-28T03:06:37;6.13;;;4.00;;
73672;SDS011;61972;19.480;-99.240;2024-02-28T03:09:03;7.80;;;4.63;;
73672;SDS011;61972;19.480;-99.240;2024-02-28T03:11:31;6.30;;;4.33;;
73672;SDS011;61972;19.480;-99.240;2024-02-28T03:13:59;7.88;;;4.85;;
73672;SDS011;61972;19.480;-99.240;2024-02-28T03:16:25;7.63;;;4.47;;
73672;SDS011;61972;19.480;-99.240;2024-02-28T03:18:51;8.82;;;4.60;;
73672;SDS011;61972;19.480;-99.240;2024-02-28T03:21:19;8.20;;;5.00;;
73672;SDS011;61972;19.480;-99.240;2024-02-28T03:23:46;7.37;;;4.77;;
73672;SDS011;61972;19.480;-99.240;2024-02-28T03:26:12;7.65;;;4.30;;
73672;SDS011;61972;19.480;-99.240;2024-02-28T03:28:38;8.50;;;4.72;;
73672;SDS011;61972;19.480;-99.240;2024-02-28T03:31:04;6.03;;;4.18;;
73672;SDS011;61972;19.480;-99.240;2024-02-28T03:33:30;9.30;;;4.57;;
73672;SDS011;61972;19.480;-99.240;2024-02-28T03:35:58;6.80;;;4.50;;
73672;SDS011;61972;19.480;-99.240;2024-02-28T03:38:24;7.45;;;4.50;;
73672;SDS011;61972;19.480;-99.240;2024-02-28T03:40:50;9.93;;;4.47;;
73672;SDS011;61972;19.480;-99.240;2024-02-28T03:43:16;8.45;;;4.50;;
73672;SDS011;61972;19.480;-99.240;2024-02-28T03:45:43;6.63;;;4.53;;
73672;SDS011;61972;19.480;-99.240;2024-02-28T03:48:09;8.67;;;4.40;;
73672;SDS011;61972;19.480;-99.240;2024-02-28T03:50:35;7.43;;;4.43;;
73672;SDS011;61972;19.480;-99.240;2024-02-28T03:53:01;6.85;;;4.50;;
73672;SDS011;61972;19.480;-99.240;2024-02-28T03:55:27;7.03;;;4.25;;
73672;SDS011;61972;19.480;-99.240;2024-02-28T03:57:53;8.07;;;4.40;;
73672;SDS011;61972;19.480;-99.240;2024-02-28T04:00:19;7.47;;;4.77;;
73672;SDS011;61972;19.480;-99.240;2024-02-28T04:02:46;8.25;;;4.20;;
73672;SDS011;61972;19.480;-99.240;2024-02-28T04:05:12;8.98;;;4.68;;
73672;SDS011;61972;19.480;-99.240;2024-02-28T04:07:38;6.68;;;4.40;;
73672;SDS011;61972;19.480;-99.240;2024-02-28T04:10:04;7.07;;;4.57;;
73672;SDS011;61972;19.480;-99.240;2024-02-28T04:12:31;7.57;;;4.10;;
73672;SDS011;61972;19.480;-99.240;2024-02-28T04:14:58;7.38;;;4.38;;
73672;SDS011;61972;19.480;-99.240;2024-02-28T04:17:24;7.80;;;4.53;;
73672;SDS011;61972;19.480;-99.240;2024-02-28T04:19:50;8.23;;;4.32;;
73672;SDS011;61972;19.480;-99.240;2024-02-28T04:22:17;8.50;;;4.75;;
73672;SDS011;61972;19.480;-99.240;2024-02-28T04:24:43;7.87;;;4.70;;
73672;SDS011;61972;19.480;-99.240;2024-02-28T04:27:09;8.13;;;4.68;;
73672;SDS011;61972;19.480;-99.240;2024-02-28T04:29:37;7.20;;;4.60;;
73672;SDS011;61972;19.480;-99.240;2024-02-28T04:32:03;7.55;;;4.82;;
73672;SDS011;61972;19.480;-99.240;2024-02-28T04:34:30;9.57;;;4.60;;
73672;SDS011;61972;19.480;-99.240;2024-02-28T04:36:56;8.27;;;4.63;;
73672;SDS011;61972;19.480;-99.240;2024-02-28T04:39:28;9.32;;;4.50;;
73672;SDS011;61972;19.480;-99.240;2024-02-28T04:41:54;9.43;;;4.35;;
73672;SDS011;61972;19.480;-99.240;2024-02-28T04:44:20;7.97;;;4.55;;
73672;SDS011;61972;19.480;-99.240;2024-02-28T04:46:46;6.93;;;4.60;;
73672;SDS011;61972;19.480;-99.240;2024-02-28T04:49:12;6.47;;;4.47;;
73672;SDS011;61972;19.480;-99.240;2024-02-28T04:51:38;7.20;;;4.50;;
73672;SDS011;61972;19.480;-99.240;2024-02-28T04:54:04;8.18;;;4.50;;
73672;SDS011;61972;19.480;-99.240;2024-02-28T04:56:39;6.30;;;4.05;;
73672;SDS011;61972;19.480;-99.240;2024-02-28T04:59:06;7.57;;;4.45;;
73672;SDS011;61972;19.480;-99.240;2024-02-28T05:01:33;9.07;;;4.77;;
73672;SDS011;61972;19.480;-99.240;2024-02-28T05:04:05;8.43;;;4.50;;
73672;SDS011;61972;19.480;-99.240;2024-02-28T05:06:32;7.25;;;5.07;;
73672;SDS011;61972;19.480;-99.240;2024-02-28T05:08:58;6.05;;;4.50;;
73672;SDS011;61972;19.480;-99.240;2024-02-28T05:11:24;8.13;;;4.78;;
73672;SDS011;61972;19.480;-99.240;2024-02-28T05:13:51;8.57;;;4.70;;
73672;SDS011;61972;19.480;-99.240;2024-02-28T05:16:17;8.32;;;5.00;;
73672;SDS011;61972;19.480;-99.240;2024-02-28T05:18:46;9.00;;;4.97;;
73672;SDS011;61972;19.480;-99.240;2024-02-28T05:21:13;11.10;;;5.15;;
73672;SDS011;61972;19.480;-99.240;2024-02-28T05:23:42;9.15;;;5.10;;
73672;SDS011;61972;19.480;-99.240;2024-02-28T05:26:10;8.80;;;4.90;;
73672;SDS011;61972;19.480;-99.240;2024-02-28T05:28:37;8.68;;;5.30;;
73672;SDS011;61972;19.480;-99.240;2024-02-28T05:33:56;9.63;;;5.40;;
73672;SDS011;61972;19.480;-99.240;2024-02-28T05:36:23;9.13;;;5.25;;
73672;SDS011;61972;19.480;-99.240;2024-02-28T05:38:50;8.40;;;5.40;;
73672;SDS011;61972;19.480;-99.240;2024-02-28T05:41:17;11.05;;;5.72;;
73672;SDS011;61972;19.480;-99.240;2024-02-28T05:43:46;10.00;;;5.97;;
73672;SDS011;61972;19.480;-99.240;2024-02-28T05:46:14;8.20;;;5.75;;
73672;SDS011;61972;19.480;-99.240;2024-02-28T05:48:41;14.07;;;6.22;;
73672;SDS011;61972;19.480;-99.240;2024-02-28T05:51:16;9.30;;;5.77;;
73672;SDS011;61972;19.480;-99.240;2024-02-28T05:54:06;12.07;;;6.15;;
73672;SDS011;61972;19.480;-99.240;2024-02-28T05:56:44;10.15;;;6.30;;
73672;SDS011;61972;19.480;-99.240;2024-02-28T05:59:10;11.88;;;5.95;;
73672;SDS011;61972;19.480;-99.240;2024-02-28T06:01:39;10.02;;;6.68;;
73672;SDS011;61972;19.480;-99.240;2024-02-28T06:04:05;9.90;;;6.43;;
73672;SDS011;61972;19.480;-99.240;2024-02-28T06:06:32;11.32;;;6.68;;
73672;SDS011;61972;19.480;-99.240;2024-02-28T06:08:58;9.07;;;6.13;;
73672;SDS011;61972;19.480;-99.240;2024-02-28T06:11:24;10.13;;;6.15;;
73672;SDS011;61972;19.480;-99.240;2024-02-28T06:13:51;11.38;;;6.80;;
73672;SDS011;61972;19.480;-99.240;2024-02-28T06:16:17;11.27;;;6.37;;
73672;SDS011;61972;19.480;-99.240;2024-02-28T06:18:44;9.40;;;6.28;;
73672;SDS011;61972;19.480;-99.240;2024-02-28T06:21:13;11.23;;;6.40;;
73672;SDS011;61972;19.480;-99.240;2024-02-28T06:23:39;10.15;;;6.32;;
73672;SDS011;61972;19.480;-99.240;2024-02-28T06:26:06;11.68;;;6.20;;
73672;SDS011;61972;19.480;-99.240;2024-02-28T06:28:32;10.67;;;6.23;;
73672;SDS011;61972;19.480;-99.240;2024-02-28T06:30:59;9.90;;;6.18;;
73672;SDS011;61972;19.480;-99.240;2024-02-28T06:33:34;9.75;;;5.95;;
73672;SDS011;61972;19.480;-99.240;2024-02-28T06:36:04;9.07;;;5.97;;
73672;SDS011;61972;19.480;-99.240;2024-02-28T06:41:16;10.60;;;6.30;;
73672;SDS011;61972;19.480;-99.240;2024-02-28T06:43:45;10.20;;;6.60;;
73672;SDS011;61972;19.480;-99.240;2024-02-28T06:46:14;10.73;;;6.80;;
73672;SDS011;61972;19.480;-99.240;2024-02-28T06:48:43;10.85;;;6.30;;
73672;SDS011;61972;19.480;-99.240;2024-02-28T06:51:09;10.38;;;6.20;;
73672;SDS011;61972;19.480;-99.240;2024-02-28T06:53:36;10.83;;;6.40;;
73672;SDS011;61972;19.480;-99.240;2024-02-28T06:56:02;8.77;;;6.10;;
73672;SDS011;61972;19.480;-99.240;2024-02-28T06:58:28;10.30;;;6.40;;
73672;SDS011;61972;19.480;-99.240;2024-02-28T07:00:55;11.18;;;6.45;;
73672;SDS011;61972;19.480;-99.240;2024-02-28T07:03:23;11.13;;;6.35;;
73672;SDS011;61972;19.480;-99.240;2024-02-28T07:05:49;8.73;;;6.10;;
73672;SDS011;61972;19.480;-99.240;2024-02-28T07:08:18;10.70;;;6.40;;
73672;SDS011;61972;19.480;-99.240;2024-02-28T07:10:46;9.52;;;6.55;;
73672;SDS011;61972;19.480;-99.240;2024-02-28T07:13:14;10.05;;;6.40;;
73672;SDS011;61972;19.480;-99.240;2024-02-28T07:15:41;10.15;;;6.43;;
73672;SDS011;61972;19.480;-99.240;2024-02-28T07:18:07;16.07;;;6.60;;
73672;SDS011;61972;19.480;-99.240;2024-02-28T07:20:33;11.23;;;6.22;;
73672;SDS011;61972;19.480;-99.240;2024-02-28T07:23:00;10.25;;;6.05;;
73672;SDS011;61972;19.480;-99.240;2024-02-28T07:25:26;11.00;;;6.13;;
73672;SDS011;61972;19.480;-99.240;2024-02-28T07:27:52;11.27;;;6.30;;
73672;SDS011;61972;19.480;-99.240;2024-02-28T07:30:18;11.73;;;6.00;;
73672;SDS011;61972;19.480;-99.240;2024-02-28T07:32:44;9.35;;;5.88;;
73672;SDS011;61972;19.480;-99.240;2024-02-28T07:35:11;9.15;;;6.07;;
73672;SDS011;61972;19.480;-99.240;2024-02-28T07:37:40;8.23;;;5.60;;
73672;SDS011;61972;19.480;-99.240;2024-02-28T07:40:06;7.53;;;5.57;;
73672;SDS011;61972;19.480;-99.240;2024-02-28T07:42:33;7.97;;;5.17;;
73672;SDS011;61972;19.480;-99.240;2024-02-28T07:45:02;9.13;;;5.50;;
73672;SDS011;61972;19.480;-99.240;2024-02-28T07:47:29;8.05;;;5.50;;
73672;SDS011;61972;19.480;-99.240;2024-02-28T07:49:56;8.13;;;5.63;;
73672;SDS011;61972;19.480;-99.240;2024-02-28T07:52:22;8.68;;;5.68;;
73672;SDS011;61972;19.480;-99.240;2024-02-28T07:54:48;7.13;;;4.90;;
73672;SDS011;61972;19.480;-99.240;2024-02-28T07:57:14;8.68;;;5.80;;
73672;SDS011;61972;19.480;-99.240;2024-02-28T07:59:41;8.82;;;5.70;;
73672;SDS011;61972;19.480;-99.240;2024-02-28T08:02:08;8.48;;;5.90;;
73672;SDS011;61972;19.480;-99.240;2024-02-28T08:04:37;9.10;;;5.47;;
73672;SDS011;61972;19.480;-99.240;2024-02-28T08:07:03;9.40;;;5.57;;
73672;SDS011;61972;19.480;-99.240;2024-02-28T08:09:30;8.05;;;5.32;;
73672;SDS011;61972;19.480;-99.240;2024-02-28T08:11:56;7.72;;;5.50;;
73672;SDS011;61972;19.480;-99.240;2024-02-28T08:14:24;11.65;;;5.82;;
73672;SDS011;61972;19.480;-99.240;2024-02-28T08:16:50;7.72;;;5.78;;
73672;SDS011;61972;19.480;-99.240;2024-02-28T08:19:16;7.70;;;5.37;;
73672;SDS011;61972;19.480;-99.240;2024-02-28T08:21:43;7.85;;;5.60;;
73672;SDS011;61972;19.480;-99.240;2024-02-28T08:24:12;7.78;;;5.57;;
73672;SDS011;61972;19.480;-99.240;2024-02-28T08:26:38;8.13;;;5.22;;
73672;SDS011;61972;19.480;-99.240;2024-02-28T08:29:06;7.45;;;5.25;;
73672;SDS011;61972;19.480;-99.240;2024-02-28T08:31:32;7.70;;;5.10;;
73672;SDS011;61972;19.480;-99.240;2024-02-28T08:33:58;6.57;;;4.80;;
73672;SDS011;61972;19.480;-99.240;2024-02-28T08:36:24;8.55;;;5.63;;
73672;SDS011;61972;19.480;-99.240;2024-02-28T08:38:50;6.68;;;4.90;;
73672;SDS011;61972;19.480;-99.240;2024-02-28T08:41:17;6.78;;;5.30;;
73672;SDS011;61972;19.480;-99.240;2024-02-28T08:43:43;6.83;;;4.60;;
73672;SDS011;61972;19.480;-99.240;2024-02-28T08:46:18;7.43;;;5.22;;
73672;SDS011;61972;19.480;-99.240;2024-02-28T08:48:49;6.90;;;5.50;;
73672;SDS011;61972;19.480;-99.240;2024-02-28T08:51:18;6.90;;;4.70;;
73672;SDS011;61972;19.480;-99.240;2024-02-28T08:53:50;8.05;;;5.45;;
73672;SDS011;61972;19.480;-99.240;2024-02-28T08:56:20;7.47;;;5.00;;
73672;SDS011;61972;19.480;-99.240;2024-02-28T08:58:47;7.65;;;4.68;;
73672;SDS011;61972;19.480;-99.240;2024-02-28T09:01:13;6.88;;;5.00;;
73672;SDS011;61972;19.480;-99.240;2024-02-28T09:03:43;6.60;;;4.78;;
73672;SDS011;61972;19.480;-99.240;2024-02-28T09:06:10;6.97;;;5.10;;
73672;SDS011;61972;19.480;-99.240;2024-02-28T09:08:39;6.43;;;4.83;;
73672;SDS011;61972;19.480;-99.240;2024-02-28T09:11:06;6.95;;;4.97;;
73672;SDS011;61972;19.480;-99.240;2024-02-28T09:13:32;7.07;;;4.90;;
73672;SDS011;61972;19.480;-99.240;2024-02-28T09:16:01;7.90;;;4.75;;
73672;SDS011;61972;19.480;-99.240;2024-02-28T09:18:27;7.30;;;4.53;;
73672;SDS011;61972;19.480;-99.240;2024-02-28T09:23:43;6.50;;;4.60;;
73672;SDS011;61972;19.480;-99.240;2024-02-28T09:26:12;6.57;;;5.05;;
73672;SDS011;61972;19.480;-99.240;2024-02-28T09:28:39;5.90;;;4.63;;
73672;SDS011;61972;19.480;-99.240;2024-02-28T09:31:05;6.90;;;4.40;;
73672;SDS011;61972;19.480;-99.240;2024-02-28T09:33:31;5.60;;;4.27;;
73672;SDS011;61972;19.480;-99.240;2024-02-28T09:35:57;7.07;;;4.70;;
73672;SDS011;61972;19.480;-99.240;2024-02-28T09:38:23;6.95;;;4.78;;
73672;SDS011;61972;19.480;-99.240;2024-02-28T09:40:50;6.97;;;4.43;;
73672;SDS011;61972;19.480;-99.240;2024-02-28T09:43:21;6.65;;;4.55;;
73672;SDS011;61972;19.480;-99.240;2024-02-28T09:46:05;6.87;;;4.43;;
73672;SDS011;61972;19.480;-99.240;2024-02-28T09:48:32;6.30;;;4.20;;
73672;SDS011;61972;19.480;-99.240;2024-02-28T09:50:59;6.50;;;4.65;;
73672;SDS011;61972;19.480;-99.240;2024-02-28T09:53:26;6.22;;;4.15;;
73672;SDS011;61972;19.480;-99.240;2024-02-28T09:55:52;6.35;;;4.30;;
73672;SDS011;61972;19.480;-99.240;2024-02-28T09:58:19;5.70;;;4.20;;
73672;SDS011;61972;19.480;-99.240;2024-02-28T10:00:46;6.72;;;4.20;;
73672;SDS011;61972;19.480;-99.240;2024-02-28T10:03:19;6.18;;;4.38;;
73672;SDS011;61972;19.480;-99.240;2024-02-28T10:05:48;6.95;;;4.22;;
73672;SDS011;61972;19.480;-99.240;2024-02-28T10:08:15;5.93;;;4.30;;
73672;SDS011;61972;19.480;-99.240;2024-02-28T10:10:47;6.77;;;4.60;;
73672;SDS011;61972;19.480;-99.240;2024-02-28T10:13:17;6.38;;;4.57;;
73672;SDS011;61972;19.480;-99.240;2024-02-28T10:15:44;6.47;;;4.35;;
73672;SDS011;61972;19.480;-99.240;2024-02-28T10:18:10;5.50;;;4.00;;
73672;SDS011;61972;19.480;-99.240;2024-02-28T10:20:37;6.10;;;4.18;;
73672;SDS011;61972;19.480;-99.240;2024-02-28T10:23:07;7.17;;;4.37;;
73672;SDS011;61972;19.480;-99.240;2024-02-28T10:25:44;6.25;;;4.22;;
73672;SDS011;61972;19.480;-99.240;2024-02-28T10:28:12;6.05;;;4.20;;
73672;SDS011;61972;19.480;-99.240;2024-02-28T10:30:41;6.10;;;4.00;;
73672;SDS011;61972;19.480;-99.240;2024-02-28T10:33:11;5.95;;;4.38;;
73672;SDS011;61972;19.480;-99.240;2024-02-28T10:35:39;5.80;;;4.10;;
73672;SDS011;61972;19.480;-99.240;2024-02-28T10:38:09;6.50;;;4.30;;
73672;SDS011;61972;19.480;-99.240;2024-02-28T10:40:37;5.15;;;3.88;;
73672;SDS011;61972;19.480;-99.240;2024-02-28T10:43:05;6.40;;;4.00;;
73672;SDS011;61972;19.480;-99.240;2024-02-28T10:45:35;6.38;;;4.50;;
73672;SDS011;61972;19.480;-99.240;2024-02-28T10:48:05;6.40;;;3.97;;
73672;SDS011;61972;19.480;-99.240;2024-02-28T10:50:32;5.10;;;3.75;;
73672;SDS011;61972;19.480;-99.240;2024-02-28T10:53:02;5.95;;;4.00;;
73672;SDS011;61972;19.480;-99.240;2024-02-28T10:55:34;6.78;;;3.70;;
73672;SDS011;61972;19.480;-99.240;2024-02-28T10:58:06;5.63;;;3.47;;
73672;SDS011;61972;19.480;-99.240;2024-02-28T11:00:35;9.00;;;4.00;;
73672;SDS011;61972;19.480;-99.240;2024-02-28T11:03:07;6.68;;;3.90;;
73672;SDS011;61972;19.480;-99.240;2024-02-28T11:08:10;7.50;;;3.53;;
73672;SDS011;61972;19.480;-99.240;2024-02-28T11:10:43;5.95;;;3.72;;
73672;SDS011;61972;19.480;-99.240;2024-02-28T11:13:23;5.23;;;3.50;;
73672;SDS011;61972;19.480;-99.240;2024-02-28T11:15:51;7.80;;;4.07;;
73672;SDS011;61972;19.480;-99.240;2024-02-28T11:18:17;7.75;;;4.20;;
73672;SDS011;61972;19.480;-99.240;2024-02-28T11:20:44;5.88;;;3.65;;
73672;SDS011;61972;19.480;-99.240;2024-02-28T11:23:14;5.78;;;3.47;;
73672;SDS011;61972;19.480;-99.240;2024-02-28T11:25:42;5.53;;;3.63;;
73672;SDS011;61972;19.480;-99.240;2024-02-28T11:28:09;6.15;;;3.38;;
73672;SDS011;61972;19.480;-99.240;2024-02-28T11:30:35;5.35;;;3.63;;
73672;SDS011;61972;19.480;-99.240;2024-02-28T11:33:01;6.30;;;4.10;;
73672;SDS011;61972;19.480;-99.240;2024-02-28T11:35:28;5.35;;;3.70;;
73672;SDS011;61972;19.480;-99.240;2024-02-28T11:37:54;5.30;;;3.60;;
73672;SDS011;61972;19.480;-99.240;2024-02-28T11:40:23;6.78;;;3.70;;
73672;SDS011;61972;19.480;-99.240;2024-02-28T11:42:56;5.32;;;3.90;;
73672;SDS011;61972;19.480;-99.240;2024-02-28T11:45:23;6.68;;;3.75;;
73672;SDS011;61972;19.480;-99.240;2024-02-28T11:47:50;4.95;;;3.58;;
73672;SDS011;61972;19.480;-99.240;2024-02-28T11:50:16;4.97;;;3.37;;
73672;SDS011;61972;19.480;-99.240;2024-02-28T11:52:49;5.45;;;3.53;;
73672;SDS011;61972;19.480;-99.240;2024-02-28T11:55:16;6.72;;;3.67;;
73672;SDS011;61972;19.480;-99.240;2024-02-28T11:57:42;5.22;;;3.53;;
73672;SDS011;61972;19.480;-99.240;2024-02-28T12:00:11;6.68;;;3.58;;
73672;SDS011;61972;19.480;-99.240;2024-02-28T12:02:40;5.23;;;3.37;;
73672;SDS011;61972;19.480;-99.240;2024-02-28T12:05:06;5.05;;;3.40;;
73672;SDS011;61972;19.480;-99.240;2024-02-28T12:07:34;5.95;;;3.83;;
73672;SDS011;61972;19.480;-99.240;2024-02-28T12:10:02;5.85;;;3.55;;
73672;SDS011;61972;19.480;-99.240;2024-02-28T12:12:28;5.47;;;3.72;;
73672;SDS011;61972;19.480;-99.240;2024-02-28T12:14:58;4.77;;;3.30;;
73672;SDS011;61972;19.480;-99.240;2024-02-28T12:17:31;5.85;;;3.60;;
73672;SDS011;61972;19.480;-99.240;2024-02-28T12:20:00;6.05;;;3.80;;
73672;SDS011;61972;19.480;-99.240;2024-02-28T12:22:26;4.75;;;3.22;;
73672;SDS011;61972;19.480;-99.240;2024-02-28T12:24:53;5.78;;;3.42;;
73672;SDS011;61972;19.480;-99.240;2024-02-28T12:27:19;5.07;;;3.40;;
73672;SDS011;61972;19.480;-99.240;2024-02-28T12:29:45;6.15;;;3.53;;
73672;SDS011;61972;19.480;-99.240;2024-02-28T12:32:14;5.25;;;3.45;;
73672;SDS011;61972;19.480;-99.240;2024-02-28T12:34:42;5.78;;;3.30;;
73672;SDS011;61972;19.480;-99.240;2024-02-28T12:37:08;4.97;;;3.35;;
73672;SDS011;61972;19.480;-99.240;2024-02-28T12:39:34;4.40;;;3.17;;
73672;SDS011;61972;19.480;-99.240;2024-02-28T12:42:00;6.22;;;3.35;;
73672;SDS011;61972;19.480;-99.240;2024-02-28T12:44:26;5.20;;;3.40;;
73672;SDS011;61972;19.480;-99.240;2024-02-28T12:46:52;4.80;;;3.50;;
73672;SDS011;61972;19.480;-99.240;2024-02-28T12:49:19;4.90;;;3.22;;
73672;SDS011;61972;19.480;-99.240;2024-02-28T12:51:45;4.10;;;2.97;;
73672;SDS011;61972;19.480;-99.240;2024-02-28T12:54:13;5.25;;;3.50;;
73672;SDS011;61972;19.480;-99.240;2024-02-28T12:56:40;5.07;;;3.53;;
73672;SDS011;61972;19.480;-99.240;2024-02-28T12:59:12;5.38;;;3.50;;
73672;SDS011;61972;19.480;-99.240;2024-02-28T13:01:39;6.63;;;4.00;;
73672;SDS011;61972;19.480;-99.240;2024-02-28T13:04:09;9.73;;;3.50;;
73672;SDS011;61972;19.480;-99.240;2024-02-28T13:06:35;8.40;;;4.22;;
73672;SDS011;61972;19.480;-99.240;2024-02-28T13:09:01;8.63;;;4.05;;
73672;SDS011;61972;19.480;-99.240;2024-02-28T13:11:28;14.32;;;4.43;;
73672;SDS011;61972;19.480;-99.240;2024-02-28T13:13:54;11.05;;;5.18;;
73672;SDS011;61972;19.480;-99.240;2024-02-28T13:16:20;11.10;;;4.60;;
73672;SDS011;61972;19.480;-99.240;2024-02-28T13:18:49;13.93;;;5.03;;
73672;SDS011;61972;19.480;-99.240;2024-02-28T13:21:16;12.80;;;5.07;;
73672;SDS011;61972;19.480;-99.240;2024-02-28T13:23:42;10.32;;;4.85;;
73672;SDS011;61972;19.480;-99.240;2024-02-28T13:26:08;12.43;;;5.00;;
73672;SDS011;61972;19.480;-99.240;2024-02-28T13:28:35;11.07;;;5.20;;
73672;SDS011;61972;19.480;-99.240;2024-02-28T13:31:01;12.65;;;5.50;;
73672;SDS011;61972;19.480;-99.240;2024-02-28T13:33:38;10.07;;;5.13;;
73672;SDS011;61972;19.480;-99.240;2024-02-28T13:36:06;12.88;;;5.30;;
73672;SDS011;61972;19.480;-99.240;2024-02-28T13:38:33;12.38;;;5.70;;
73672;SDS011;61972;19.480;-99.240;2024-02-28T13:40:59;11.13;;;4.80;;
73672;SDS011;61972;19.480;-99.240;2024-02-28T13:43:25;9.07;;;5.07;;
73672;SDS011;61972;19.480;-99.240;2024-02-28T13:45:52;8.73;;;4.80;;
73672;SDS011;61972;19.480;-99.240;2024-02-28T13:48:25;12.82;;;5.22;;
73672;SDS011;61972;19.480;-99.240;2024-02-28T13:50:54;9.75;;;5.28;;
73672;SDS011;61972;19.480;-99.240;2024-02-28T13:53:20;9.53;;;5.30;;
73672;SDS011;61972;19.480;-99.240;2024-02-28T13:55:47;12.90;;;5.72;;
73672;SDS011;61972;19.480;-99.240;2024-02-28T13:58:13;12.52;;;5.80;;
73672;SDS011;61972;19.480;-99.240;2024-02-28T14:00:43;10.68;;;5.25;;
73672;SDS011;61972;19.480;-99.240;2024-02-28T14:03:13;12.43;;;5.40;;
73672;SDS011;61972;19.480;-99.240;2024-02-28T14:05:39;11.03;;;5.17;;
73672;SDS011;61972;19.480;-99.240;2024-02-28T14:08:06;11.18;;;5.60;;
73672;SDS011;61972;19.480;-99.240;2024-02-28T14:10:37;10.68;;;5.63;;
73672;SDS011;61972;19.480;-99.240;2024-02-28T14:13:03;8.50;;;5.15;;
73672;SDS011;61972;19.480;-99.240;2024-02-28T14:15:30;10.27;;;5.60;;
73672;SDS011;61972;19.480;-99.240;2024-02-28T14:17:56;14.73;;;5.63;;
73672;SDS011;61972;19.480;-99.240;2024-02-28T14:20:22;11.55;;;5.90;;
73672;SDS011;61972;19.480;-99.240;2024-02-28T14:22:48;9.95;;;5.90;;
73672;SDS011;61972;19.480;-99.240;2024-02-28T14:25:16;12.70;;;5.68;;
73672;SDS011;61972;19.480;-99.240;2024-02-28T14:27:45;11.48;;;6.13;;
73672;SDS011;61972;19.480;-99.240;2024-02-28T14:30:12;10.27;;;5.90;;